This is the latest recevied weather packets stored in our database for station/object EA5EN. If no packets are shown the sender has not sent any weather packets the latest 10 day(s).
| Time | Temp. | Humidity | Pressure | Rain* | Wind** | Luminosity | Snow |
|---|---|---|---|---|---|---|---|
| 1777789857 | 17.22° C | 90% | 1015.5 hPa | 0 mm | - | - | - |
| 1777788641 | 17.22° C | 90% | 1015.7 hPa | 0 mm | - | - | - |
| 1777784439 | 17.22° C | 91% | 1014.7 hPa | 0 mm | - | - | - |
| 1777783828 | 16.67° C | 91% | 1014.6 hPa | 0 mm | - | - | - |
| 1777782667 | 17.22° C | 91% | 1014.6 hPa | 0 mm | - | - | - |
| 1777771832 | 17.22° C | 90% | 1015.4 hPa | 0 mm | - | - | - |
| 1777770618 | 17.22° C | 90% | 1015.6 hPa | 0 mm | - | - | - |
| 1777768852 | 17.78° C | 89% | 1015.8 hPa | 0 mm | - | - | - |
| 1777765254 | 17.78° C | 88% | 1017.1 hPa | 0 mm | - | - | - |
| 1777764039 | 17.78° C | 89% | 1017.2 hPa | 0 mm | - | - | - |
| 1777763428 | 17.78° C | 89% | 1017 hPa | 0 mm | - | - | - |
| 1777757457 | 17.78° C | 89% | 1017.3 hPa | 0 mm | - | - | - |
| 1777756852 | 17.78° C | 89% | 1017.3 hPa | 0 mm | - | - | - |
| 1777755653 | 17.78° C | 89% | 1017.4 hPa | 0 mm | - | - | - |
| 1777753867 | 17.78° C | 87% | 1017.1 hPa | 0 mm | - | - | - |
| 1777753256 | 17.78° C | 87% | 1017 hPa | 0 mm | - | - | - |
| 1777752651 | 17.78° C | 87% | 1016.9 hPa | 0 mm | - | - | - |
| 1777746640 | 19.44° C | 80% | 1016.2 hPa | 0 mm | - | - | - |
| 1777746075 | 19.44° C | 78% | 1016.1 hPa | 0 mm | - | - | - |
| 1777742467 | 20.56° C | 72% | 1016.7 hPa | 0 mm | - | - | - |
| 1777741860 | 21.11° C | 70% | 1016.6 hPa | 0 mm | - | - | - |
| 1777741275 | 21.11° C | 71% | 1016.8 hPa | 0 mm | - | - | - |
| 1777740650 | 21.11° C | 71% | 1016.6 hPa | 0 mm | - | - | - |
| 1777740045 | 21.11° C | 71% | 1016.9 hPa | 0 mm | - | - | - |
| 1777737623 | 21.67° C | 69% | 1017.3 hPa | 0 mm | - | - | - |
* Rain latest hour (hover to see other rain measurements)
** Current wind speed in m/s (hover to see current wind gust speed)